createdAt,value
2017-08-17T00:02:11.279Z,92.60
2017-08-17T00:04:38.761Z,92.60
2017-08-17T00:07:07.112Z,92.70
2017-08-17T00:09:34.612Z,92.70
2017-08-17T00:12:02.117Z,92.80
2017-08-17T00:14:29.600Z,92.90
2017-08-17T00:16:57.102Z,93.00
2017-08-17T00:19:24.587Z,92.80
2017-08-17T00:21:52.087Z,92.90
2017-08-17T00:24:19.569Z,93.00
2017-08-17T00:26:47.063Z,93.00
2017-08-17T00:29:14.547Z,93.10
2017-08-17T00:31:42.029Z,93.10
2017-08-17T00:34:09.527Z,93.10
2017-08-17T00:36:37.019Z,93.10
2017-08-17T00:39:04.511Z,93.20
2017-08-17T00:41:32.002Z,93.30
2017-08-17T00:43:59.506Z,93.50
2017-08-17T00:46:26.980Z,93.60
2017-08-17T00:48:54.487Z,93.80
2017-08-17T00:51:21.973Z,93.90
2017-08-17T00:53:49.475Z,93.70
2017-08-17T00:56:16.968Z,93.80
2017-08-17T00:58:44.478Z,93.90
2017-08-17T01:01:11.971Z,93.90
2017-08-17T01:03:40.239Z,94.00
2017-08-17T01:06:07.731Z,93.90
2017-08-17T01:08:35.232Z,93.90
2017-08-17T01:11:02.724Z,94.00
2017-08-17T01:13:30.216Z,94.00
2017-08-17T01:15:57.691Z,94.00
2017-08-17T01:18:25.196Z,94.00
2017-08-17T01:20:53.444Z,94.10
2017-08-17T01:23:21.712Z,93.80
2017-08-17T01:25:49.960Z,93.70
2017-08-17T01:28:18.232Z,93.80
2017-08-17T01:30:45.711Z,93.70
2017-08-17T01:33:13.210Z,93.60
2017-08-17T01:35:41.488Z,92.90
2017-08-17T01:38:08.972Z,92.90
2017-08-17T01:40:36.482Z,92.70
2017-08-17T01:43:03.976Z,92.50
2017-08-17T01:45:31.475Z,92.50
2017-08-17T01:47:58.962Z,92.70
2017-08-17T01:50:26.469Z,92.60
2017-08-17T01:52:53.948Z,92.40
2017-08-17T01:55:21.452Z,92.50
2017-08-17T01:57:48.941Z,93.10
2017-08-17T02:00:16.449Z,93.10
2017-08-17T02:02:43.932Z,93.20
2017-08-17T02:05:11.430Z,93.20
2017-08-17T02:07:38.921Z,93.50
2017-08-17T02:10:07.191Z,93.50
2017-08-17T02:12:35.440Z,93.60
2017-08-17T02:15:02.939Z,93.60
2017-08-17T02:17:30.423Z,93.40
2017-08-17T02:19:57.931Z,93.20
2017-08-17T02:22:25.415Z,93.20
2017-08-17T02:24:52.941Z,93.40
2017-08-17T02:27:20.429Z,93.50
2017-08-17T02:29:47.951Z,93.30
2017-08-17T02:32:16.191Z,92.90
2017-08-17T02:34:43.684Z,92.90
2017-08-17T02:37:11.184Z,93.10
2017-08-17T02:39:38.664Z,92.70
2017-08-17T02:42:06.159Z,92.50
2017-08-17T02:44:33.647Z,92.60
2017-08-17T02:47:01.172Z,93.00
2017-08-17T02:49:28.655Z,93.30
2017-08-17T02:51:56.149Z,93.40
2017-08-17T02:54:24.392Z,93.90
2017-08-17T02:56:51.905Z,93.90
2017-08-17T02:59:19.400Z,94.10
2017-08-17T03:01:46.895Z,93.80
2017-08-17T03:04:14.385Z,93.70
2017-08-17T03:06:41.899Z,94.00
2017-08-17T03:09:09.381Z,94.20
2017-08-17T03:11:36.892Z,94.50
2017-08-17T03:14:05.144Z,94.70
2017-08-17T03:16:32.648Z,94.70
2017-08-17T03:19:00.140Z,94.80
2017-08-17T03:21:28.413Z,94.90
2017-08-17T03:23:56.660Z,94.90
2017-08-17T03:26:24.924Z,95.20
2017-08-17T03:28:53.176Z,94.90
2017-08-17T03:31:20.720Z,94.80
2017-08-17T03:33:48.989Z,94.60
2017-08-17T03:36:16.472Z,94.60
2017-08-17T03:38:43.984Z,94.50
2017-08-17T03:41:11.485Z,94.40
2017-08-17T03:43:38.996Z,94.10
2017-08-17T03:46:06.480Z,94.30
2017-08-17T03:48:33.979Z,94.50
2017-08-17T03:51:01.469Z,94.60
2017-08-17T03:53:28.977Z,94.70
2017-08-17T03:55:56.458Z,94.60
2017-08-17T03:58:23.963Z,94.70
2017-08-17T04:00:51.452Z,94.70
2017-08-17T04:03:18.964Z,94.80
2017-08-17T04:05:46.463Z,94.80
2017-08-17T04:08:14.152Z,95.00
2017-08-17T04:10:41.648Z,94.90
2017-08-17T04:13:09.200Z,95.00
2017-08-17T04:15:36.662Z,94.90
2017-08-17T04:18:04.181Z,95.00
2017-08-17T04:20:31.659Z,95.10
2017-08-17T04:22:59.162Z,95.10
2017-08-17T04:25:26.649Z,95.20
2017-08-17T04:27:54.160Z,95.20
2017-08-17T04:30:21.648Z,95.10
2017-08-17T04:32:49.160Z,94.40
2017-08-17T04:35:16.645Z,94.10
2017-08-17T04:37:44.895Z,93.50
2017-08-17T04:40:12.395Z,93.50
2017-08-17T04:42:39.889Z,93.30
2017-08-17T04:45:08.162Z,93.70
2017-08-17T04:47:35.725Z,93.70
2017-08-17T04:50:03.233Z,94.20
2017-08-17T04:52:30.716Z,94.40
2017-08-17T04:54:58.229Z,94.50
2017-08-17T04:57:53.084Z,94.70
2017-08-17T05:00:20.580Z,94.60
2017-08-17T05:02:48.192Z,94.50
2017-08-17T05:05:15.695Z,94.40
2017-08-17T05:07:43.176Z,94.80
2017-08-17T05:10:11.451Z,94.30
2017-08-17T05:12:38.933Z,94.30
2017-08-17T05:15:06.496Z,94.50
2017-08-17T05:17:33.984Z,94.40
2017-08-17T05:20:01.500Z,94.60
2017-08-17T05:22:31.008Z,95.30
2017-08-17T05:24:59.292Z,95.50
2017-08-17T05:27:26.774Z,95.50
2017-08-17T05:29:54.287Z,95.50
2017-08-17T05:32:21.781Z,95.80
2017-08-17T05:34:49.292Z,95.60
2017-08-17T05:37:16.792Z,95.50
2017-08-17T05:39:44.288Z,95.40
2017-08-17T05:42:11.796Z,95.50
2017-08-17T05:44:39.282Z,95.60
2017-08-17T05:47:06.788Z,95.80
2017-08-17T05:49:34.283Z,95.90
2017-08-17T05:52:02.555Z,95.70
2017-08-17T05:54:30.883Z,95.90
2017-08-17T05:56:58.420Z,95.90
2017-08-17T05:59:25.907Z,96.50
2017-08-17T06:01:54.171Z,96.30
2017-08-17T06:07:14.655Z,96.20
2017-08-17T06:09:42.161Z,95.90
2017-08-17T06:12:09.664Z,95.90
2017-08-17T06:14:37.152Z,96.00
2017-08-17T06:17:05.424Z,97.20
2017-08-17T06:19:33.681Z,96.60
2017-08-17T06:22:01.199Z,96.60
2017-08-17T06:24:28.714Z,96.60
2017-08-17T06:26:56.219Z,96.70
2017-08-17T06:29:23.713Z,96.90
2017-08-17T06:31:51.239Z,97.10
2017-08-17T06:34:18.737Z,97.10
2017-08-17T06:36:46.241Z,97.40
2017-08-17T06:39:13.728Z,97.10
2017-08-17T06:41:42.035Z,96.50
2017-08-17T06:44:09.535Z,96.50
2017-08-17T06:46:37.855Z,96.20
2017-08-17T06:49:05.409Z,96.10
2017-08-17T06:51:32.952Z,95.90
2017-08-17T06:54:00.440Z,95.60
2017-08-17T06:56:27.949Z,95.20
2017-08-17T06:58:55.450Z,94.80
2017-08-17T07:01:22.938Z,94.90
2017-08-17T07:03:50.452Z,94.50
2017-08-17T07:06:17.932Z,94.20
2017-08-17T07:08:45.463Z,92.90
2017-08-17T07:11:12.987Z,90.80
2017-08-17T07:13:40.492Z,88.20
2017-08-17T07:16:08.007Z,83.20
2017-08-17T07:18:36.279Z,80.80
2017-08-17T07:21:03.808Z,80.70
2017-08-17T07:23:32.083Z,83.80
2017-08-17T07:25:59.578Z,83.10
2017-08-17T07:28:27.087Z,84.50
2017-08-17T07:30:54.576Z,85.00
2017-08-17T07:33:22.859Z,85.80
2017-08-17T07:35:51.123Z,85.60
2017-08-17T07:38:19.431Z,85.70
2017-08-17T07:40:46.913Z,85.70
2017-08-17T07:43:15.217Z,86.00
2017-08-17T07:45:42.708Z,85.20
2017-08-17T07:48:10.216Z,87.30
2017-08-17T07:50:37.779Z,88.00
2017-08-17T07:53:05.373Z,88.30
2017-08-17T07:55:32.900Z,87.80
2017-08-17T07:58:01.291Z,89.50
2017-08-17T08:00:28.820Z,89.30
2017-08-17T08:02:56.328Z,89.20
2017-08-17T08:05:23.829Z,88.50
2017-08-17T08:07:51.320Z,87.20
2017-08-17T08:10:18.832Z,87.00
2017-08-17T08:12:46.367Z,86.90
2017-08-17T08:15:13.887Z,85.80
2017-08-17T08:17:41.376Z,85.70
2017-08-17T08:20:08.885Z,85.00
2017-08-17T08:22:36.382Z,84.30
2017-08-17T08:25:04.656Z,84.10
2017-08-17T08:27:32.159Z,83.90
2017-08-17T08:29:59.677Z,84.00
2017-08-17T08:32:27.172Z,83.40
2017-08-17T08:34:54.680Z,85.50
2017-08-17T08:37:22.169Z,85.10
2017-08-17T08:39:49.692Z,84.20
2017-08-17T08:42:17.179Z,84.50
2017-08-17T08:44:44.691Z,84.00
2017-08-17T08:47:12.181Z,84.50
2017-08-17T08:49:39.727Z,84.90
2017-08-17T08:52:07.216Z,86.30
2017-08-17T08:54:35.475Z,85.60
2017-08-17T08:57:03.953Z,85.50
2017-08-17T08:59:31.475Z,86.20
2017-08-17T09:01:59.754Z,87.70
2017-08-17T09:04:28.029Z,87.50
2017-08-17T09:06:55.541Z,87.50
2017-08-17T09:09:23.795Z,87.90
2017-08-17T09:11:51.308Z,87.90
2017-08-17T09:14:18.789Z,88.60
2017-08-17T09:16:46.311Z,89.70
2017-08-17T09:19:13.815Z,89.50
2017-08-17T09:21:41.328Z,89.20
2017-08-17T09:24:09.735Z,89.30
2017-08-17T09:26:37.248Z,89.30
2017-08-17T09:29:07.383Z,89.20
2017-08-17T09:31:34.892Z,89.20
2017-08-17T09:34:02.393Z,89.60
2017-08-17T09:36:29.904Z,89.30
2017-08-17T09:38:57.388Z,89.50
2017-08-17T09:41:24.891Z,88.90
2017-08-17T09:43:52.376Z,88.80
2017-08-17T09:46:19.891Z,88.80
2017-08-17T09:48:47.441Z,88.90
2017-08-17T09:51:14.948Z,88.90
2017-08-17T09:53:42.444Z,89.10
2017-08-17T09:56:09.992Z,87.90
2017-08-17T09:58:38.254Z,86.20
2017-08-17T10:01:06.540Z,85.70
2017-08-17T10:03:34.090Z,85.60
2017-08-17T10:06:01.575Z,86.50
2017-08-17T10:08:29.167Z,86.90
2017-08-17T10:10:56.784Z,84.70
2017-08-17T10:13:24.319Z,85.50
2017-08-17T10:15:51.800Z,86.10
2017-08-17T10:18:19.319Z,86.00
2017-08-17T10:20:46.803Z,86.30
2017-08-17T10:23:14.317Z,85.40
2017-08-17T10:25:42.571Z,86.20
2017-08-17T10:28:10.879Z,88.10
2017-08-17T10:30:38.363Z,87.40
2017-08-17T10:33:05.863Z,87.20
2017-08-17T10:35:33.372Z,85.60
2017-08-17T10:38:00.884Z,85.50
2017-08-17T10:40:28.386Z,85.20
2017-08-17T10:42:55.930Z,83.90
2017-08-17T10:45:23.432Z,83.70
2017-08-17T10:47:51.738Z,81.70
2017-08-17T10:50:19.236Z,81.60
2017-08-17T10:52:47.516Z,81.30
2017-08-17T10:55:15.025Z,81.10
2017-08-17T10:57:42.552Z,81.70
2017-08-17T11:00:10.060Z,81.90
2017-08-17T11:02:37.546Z,82.00
2017-08-17T11:05:05.055Z,81.60
2017-08-17T11:07:32.561Z,80.60
2017-08-17T11:10:00.085Z,79.50
2017-08-17T11:12:27.571Z,81.00
2017-08-17T11:14:55.083Z,80.10
2017-08-17T11:17:23.332Z,79.10
2017-08-17T11:19:51.608Z,79.40
2017-08-17T11:22:19.865Z,79.80
2017-08-17T11:24:48.136Z,79.40
2017-08-17T11:27:15.620Z,79.30
2017-08-17T11:29:43.128Z,81.20
2017-08-17T11:32:10.620Z,81.80
2017-08-17T11:34:38.133Z,81.90
2017-08-17T11:37:05.628Z,79.90
2017-08-17T11:39:33.892Z,80.20
2017-08-17T11:42:02.150Z,79.20
2017-08-17T11:44:30.422Z,79.00
2017-08-17T11:46:58.666Z,76.10
2017-08-17T11:49:26.180Z,76.00
2017-08-17T11:51:53.656Z,78.60
2017-08-17T11:54:21.928Z,81.20
2017-08-17T11:56:49.424Z,81.10
2017-08-17T11:59:16.935Z,81.20
2017-08-17T12:01:44.428Z,80.30
2017-08-17T12:04:11.915Z,80.50
2017-08-17T12:06:39.431Z,80.50
2017-08-17T12:09:07.684Z,81.60
2017-08-17T12:11:35.953Z,80.60
2017-08-17T12:14:04.208Z,80.90
2017-08-17T12:16:31.714Z,80.80
2017-08-17T12:18:59.214Z,81.20
2017-08-17T12:21:26.732Z,80.90
2017-08-17T12:23:54.208Z,81.60
2017-08-17T12:26:21.715Z,80.80
2017-08-17T12:28:49.195Z,81.90
2017-08-17T12:31:16.695Z,81.60
2017-08-17T12:33:44.176Z,80.20
2017-08-17T12:36:11.687Z,78.40
2017-08-17T12:38:39.167Z,78.20
2017-08-17T12:41:06.675Z,77.00
2017-08-17T12:43:34.924Z,74.40
2017-08-17T12:46:02.481Z,74.40
2017-08-17T12:48:30.723Z,73.20
2017-08-17T12:50:58.223Z,73.20
2017-08-17T12:53:25.708Z,73.30
2017-08-17T12:55:53.203Z,74.00
2017-08-17T12:58:20.679Z,74.40
2017-08-17T13:00:48.183Z,76.20
2017-08-17T13:03:15.670Z,76.00
2017-08-17T13:05:43.151Z,76.80
2017-08-17T13:08:10.652Z,76.50
2017-08-17T13:10:38.139Z,76.00
2017-08-17T13:13:05.651Z,72.80
2017-08-17T13:15:33.133Z,73.70
2017-08-17T13:18:00.630Z,73.40
2017-08-17T13:20:28.112Z,72.10
2017-08-17T13:22:55.619Z,72.30
2017-08-17T13:25:23.100Z,67.60
2017-08-17T13:27:50.604Z,69.20
2017-08-17T13:30:18.087Z,68.90
2017-08-17T13:32:45.585Z,67.50
2017-08-17T13:35:13.073Z,68.20
2017-08-17T13:37:40.575Z,69.30
2017-08-17T13:40:08.060Z,71.50
2017-08-17T13:42:35.564Z,69.90
2017-08-17T13:45:03.047Z,69.10
2017-08-17T13:47:30.553Z,69.80
2017-08-17T13:49:58.799Z,69.10
2017-08-17T13:52:26.299Z,68.20
2017-08-17T13:54:53.780Z,68.00
2017-08-17T13:57:21.275Z,69.30
2017-08-17T13:59:48.752Z,69.30
2017-08-17T14:02:16.228Z,67.60
2017-08-17T14:04:44.505Z,69.10
2017-08-17T14:07:11.992Z,69.00
2017-08-17T14:09:39.497Z,68.90
2017-08-17T14:12:06.977Z,68.00
2017-08-17T14:14:34.488Z,68.20
2017-08-17T14:17:01.971Z,69.80
2017-08-17T14:19:29.503Z,69.00
2017-08-17T14:21:56.988Z,67.40
2017-08-17T14:24:25.258Z,68.10
2017-08-17T14:26:52.742Z,68.10
2017-08-17T14:29:20.248Z,67.60
2017-08-17T14:31:47.740Z,67.60
2017-08-17T14:34:15.237Z,68.40
2017-08-17T14:36:42.715Z,67.20
2017-08-17T14:39:10.219Z,67.90
2017-08-17T14:41:37.721Z,65.80
2017-08-17T14:44:05.220Z,67.00
2017-08-17T14:46:32.709Z,68.50
2017-08-17T14:49:00.212Z,68.90
2017-08-17T14:51:27.686Z,69.90
2017-08-17T14:53:55.181Z,70.70
2017-08-17T14:56:22.668Z,70.60
2017-08-17T14:58:50.168Z,71.20
2017-08-17T15:01:17.643Z,71.30
2017-08-17T15:03:45.128Z,69.60
2017-08-17T15:06:12.628Z,69.40
2017-08-17T15:08:40.104Z,70.20
2017-08-17T15:11:08.370Z,71.10
2017-08-17T15:13:35.859Z,71.00
2017-08-17T15:16:03.363Z,71.30
2017-08-17T15:18:31.214Z,71.00
2017-08-17T15:20:59.473Z,70.90
2017-08-17T15:23:27.707Z,70.60
2017-08-17T15:25:55.205Z,70.60
2017-08-17T15:28:22.687Z,70.20
2017-08-17T15:30:50.181Z,69.90
2017-08-17T15:33:17.668Z,71.10
2017-08-17T15:35:45.177Z,70.70
2017-08-17T15:38:12.660Z,70.30
2017-08-17T15:40:40.151Z,70.90
2017-08-17T15:43:07.631Z,71.10
2017-08-17T15:45:35.131Z,71.30
2017-08-17T15:48:02.636Z,71.30
2017-08-17T15:50:30.908Z,72.00
2017-08-17T15:52:59.155Z,72.90
2017-08-17T15:55:26.656Z,72.90
2017-08-17T15:57:54.136Z,73.30
2017-08-17T16:00:21.642Z,73.90
2017-08-17T16:02:49.119Z,73.80
2017-08-17T16:05:16.620Z,72.70
2017-08-17T16:07:44.122Z,70.90
2017-08-17T16:10:12.373Z,69.10
2017-08-17T16:12:39.867Z,69.00
2017-08-17T16:15:07.342Z,68.60
2017-08-17T16:17:34.839Z,68.40
2017-08-17T16:20:02.319Z,69.10
2017-08-17T16:22:29.823Z,69.40
2017-08-17T16:24:57.389Z,68.90
2017-08-17T16:27:24.888Z,69.00
2017-08-17T16:29:52.402Z,69.00
2017-08-17T16:32:19.909Z,69.70
2017-08-17T16:34:47.396Z,69.80
2017-08-17T16:37:14.900Z,70.00
2017-08-17T16:39:42.395Z,70.00
2017-08-17T16:42:09.895Z,70.00
2017-08-17T16:44:37.380Z,70.60
2017-08-17T16:47:04.884Z,70.90
2017-08-17T16:49:32.461Z,71.70
2017-08-17T16:51:59.977Z,72.30
2017-08-17T16:54:27.472Z,72.90
2017-08-17T16:56:55.596Z,73.30
2017-08-17T16:59:23.085Z,73.10
2017-08-17T17:01:50.604Z,73.40
2017-08-17T17:04:18.091Z,73.20
2017-08-17T17:06:45.577Z,73.70
2017-08-17T17:14:57.051Z,73.60
2017-08-17T17:20:14.960Z,73.60
2017-08-17T17:22:42.483Z,73.60
2017-08-17T17:25:09.963Z,73.60
2017-08-17T17:27:37.463Z,74.00
2017-08-17T17:30:04.939Z,73.50
2017-08-17T17:32:32.445Z,73.60
2017-08-17T17:34:59.950Z,74.00
2017-08-17T17:37:27.430Z,74.20
2017-08-17T17:39:54.935Z,73.80
2017-08-17T17:42:22.425Z,72.70
2017-08-17T17:44:49.984Z,72.50
2017-08-17T17:47:18.248Z,73.20
2017-08-17T17:49:46.688Z,73.10
2017-08-17T17:52:14.172Z,73.00
2017-08-17T17:54:43.625Z,73.20
2017-08-17T17:57:11.910Z,72.50
2017-08-17T17:59:39.402Z,72.90
2017-08-17T18:02:07.689Z,73.40
2017-08-17T18:04:35.957Z,74.20
2017-08-17T18:07:03.436Z,73.30
2017-08-17T18:09:30.936Z,73.50
2017-08-17T18:11:58.425Z,73.80
2017-08-17T18:14:25.959Z,74.00
2017-08-17T18:16:53.440Z,74.10
2017-08-17T18:19:20.944Z,74.60
2017-08-17T18:21:48.446Z,74.30
2017-08-17T18:24:16.719Z,75.20
2017-08-17T18:26:44.964Z,75.20
2017-08-17T18:29:12.475Z,75.10
2017-08-17T18:31:39.957Z,75.20
2017-08-17T18:34:07.464Z,75.10
2017-08-17T18:36:34.948Z,75.20
2017-08-17T18:39:02.447Z,75.20
2017-08-17T18:41:31.089Z,75.00
2017-08-17T18:44:14.389Z,75.00
2017-08-17T18:49:32.897Z,75.30
2017-08-17T18:52:01.163Z,75.00
2017-08-17T18:54:29.418Z,75.40
2017-08-17T18:56:57.680Z,75.00
2017-08-17T18:59:25.179Z,75.00
2017-08-17T19:01:52.711Z,75.50
2017-08-17T19:04:20.204Z,75.60
2017-08-17T19:06:47.729Z,76.00
2017-08-17T19:09:15.211Z,76.10
2017-08-17T19:11:42.716Z,76.10
2017-08-17T19:14:10.213Z,76.20
2017-08-17T19:16:37.715Z,76.40
2017-08-17T19:21:58.348Z,76.80
2017-08-17T19:24:25.859Z,78.20
2017-08-17T19:26:54.271Z,77.60
2017-08-17T19:29:22.361Z,77.80
2017-08-17T19:31:49.881Z,77.30
2017-08-17T19:34:17.448Z,76.90
2017-08-17T19:36:45.726Z,77.50
2017-08-17T19:39:13.212Z,77.10
2017-08-17T19:41:40.720Z,77.60
2017-08-17T19:44:08.205Z,77.60
2017-08-17T19:46:35.705Z,77.50
2017-08-17T19:49:03.187Z,77.50
2017-08-17T19:51:30.693Z,77.70
2017-08-17T19:53:58.175Z,77.80
2017-08-17T19:56:25.677Z,77.80
2017-08-17T19:58:53.162Z,77.80
2017-08-17T20:01:20.659Z,78.00
2017-08-17T20:03:48.152Z,78.40
2017-08-17T20:06:15.649Z,78.60
2017-08-17T20:08:43.127Z,78.50
2017-08-17T20:11:10.617Z,78.50
2017-08-17T20:13:38.119Z,78.60
2017-08-17T20:16:05.606Z,78.90
2017-08-17T20:18:33.111Z,79.10
2017-08-17T20:21:00.603Z,79.50
2017-08-17T20:23:28.111Z,79.40
2017-08-17T20:25:56.356Z,80.30
2017-08-17T20:28:23.861Z,79.80
2017-08-17T20:30:51.364Z,79.70
2017-08-17T20:33:18.874Z,80.00
2017-08-17T20:35:46.359Z,80.40
2017-08-17T20:38:13.868Z,81.00
2017-08-17T20:40:41.355Z,80.90
2017-08-17T20:43:08.860Z,80.70
2017-08-17T21:02:56.270Z,81.80
2017-08-17T21:05:23.749Z,82.30
2017-08-17T21:07:51.247Z,82.50
2017-08-17T21:10:18.736Z,82.20
2017-08-17T21:12:46.238Z,82.40
2017-08-17T21:15:13.711Z,82.60
2017-08-17T21:17:41.210Z,82.40
2017-08-17T21:20:08.722Z,82.90
2017-08-17T21:22:36.206Z,82.80
2017-08-17T21:25:03.706Z,82.10
2017-08-17T21:27:31.189Z,82.50
2017-08-17T21:29:58.703Z,82.90
2017-08-17T21:32:26.189Z,83.90
2017-08-17T21:34:54.455Z,83.50
2017-08-17T21:37:21.942Z,84.00
2017-08-17T21:39:49.453Z,84.40
2017-08-17T21:42:16.945Z,84.50
2017-08-17T21:44:44.456Z,84.40
2017-08-17T21:47:11.939Z,85.00
2017-08-17T21:49:39.439Z,84.60
2017-08-17T21:52:06.919Z,84.70
2017-08-17T21:54:34.448Z,84.80
2017-08-17T21:57:01.932Z,85.10
2017-08-17T21:59:30.209Z,85.10
2017-08-17T22:01:57.684Z,85.00
2017-08-17T22:04:25.180Z,85.10
2017-08-17T22:06:52.664Z,85.20
2017-08-17T22:09:20.174Z,85.40
2017-08-17T22:11:47.692Z,85.00
2017-08-17T22:14:15.193Z,84.80
2017-08-17T22:16:42.668Z,84.80
2017-08-17T22:19:10.152Z,85.30
2017-08-17T22:21:37.655Z,85.90
2017-08-17T22:24:05.136Z,86.40
2017-08-17T22:26:32.641Z,86.30
2017-08-17T22:29:00.111Z,86.10
2017-08-17T22:31:28.414Z,85.70
2017-08-17T22:33:55.897Z,85.60
2017-08-17T22:36:23.403Z,85.60
2017-08-17T22:38:50.879Z,85.80
2017-08-17T22:41:18.401Z,85.40
2017-08-17T22:43:45.878Z,86.60
2017-08-17T22:46:14.153Z,84.60
2017-08-17T22:48:41.635Z,84.60
2017-08-17T22:51:09.136Z,84.50
2017-08-17T22:53:36.624Z,85.50
2017-08-17T22:56:04.130Z,84.30
2017-08-17T22:58:31.627Z,84.50
2017-08-17T23:00:59.121Z,84.70
2017-08-17T23:03:27.027Z,84.20
2017-08-17T23:05:54.518Z,84.50
2017-08-17T23:08:22.000Z,84.40
2017-08-17T23:10:49.503Z,84.30
2017-08-17T23:13:16.987Z,85.10
2017-08-17T23:15:44.467Z,84.80
2017-08-17T23:18:11.968Z,84.30
2017-08-17T23:20:39.447Z,84.00
2017-08-17T23:23:07.763Z,85.60
2017-08-17T23:25:35.237Z,85.60
2017-08-17T23:28:02.735Z,85.80
2017-08-17T23:30:30.223Z,86.20
2017-08-17T23:32:58.494Z,88.20
2017-08-17T23:35:26.743Z,87.50
2017-08-17T23:37:54.269Z,87.40
2017-08-17T23:40:21.754Z,87.30
2017-08-17T23:42:49.255Z,87.30
2017-08-17T23:45:16.732Z,87.40
2017-08-17T23:47:44.231Z,87.40
2017-08-17T23:50:11.704Z,87.80
2017-08-17T23:52:39.204Z,87.80
2017-08-17T23:55:06.679Z,87.00
2017-08-17T23:57:34.948Z,87.90
